sensor_id;sensor_type;location;lat;lon;timestamp;pressure;altitude;pressure_sealevel;temperature;humidity
11985;BME280;6052;53.246;10.368;2023-08-30T00:01:34;100313.09;;;19.57;77.05
11985;BME280;6052;53.246;10.368;2023-08-30T00:04:03;100314.94;;;19.48;77.17
11985;BME280;6052;53.246;10.368;2023-08-30T00:06:33;100312.81;;;19.45;77.44
11985;BME280;6052;53.246;10.368;2023-08-30T00:09:06;100315.75;;;19.49;77.12
11985;BME280;6052;53.246;10.368;2023-08-30T00:11:35;100316.66;;;19.44;77.42
11985;BME280;6052;53.246;10.368;2023-08-30T00:14:05;100316.94;;;19.43;77.50
11985;BME280;6052;53.246;10.368;2023-08-30T00:16:36;100311.09;;;19.49;77.84
11985;BME280;6052;53.246;10.368;2023-08-30T00:19:06;100321.19;;;19.35;77.39
11985;BME280;6052;53.246;10.368;2023-08-30T00:21:35;100316.47;;;19.27;77.42
11985;BME280;6052;53.246;10.368;2023-08-30T00:24:07;100321.28;;;19.30;77.69
11985;BME280;6052;53.246;10.368;2023-08-30T00:26:37;100324.84;;;19.31;77.47
11985;BME280;6052;53.246;10.368;2023-08-30T00:29:06;100324.31;;;19.29;77.58
11985;BME280;6052;53.246;10.368;2023-08-30T00:31:37;100324.41;;;19.24;77.58
11985;BME280;6052;53.246;10.368;2023-08-30T00:34:06;100324.94;;;19.26;77.71
11985;BME280;6052;53.246;10.368;2023-08-30T00:36:36;100326.91;;;19.20;77.83
11985;BME280;6052;53.246;10.368;2023-08-30T00:39:08;100320.09;;;19.23;77.75
11985;BME280;6052;53.246;10.368;2023-08-30T00:41:37;100324.50;;;19.19;77.85
11985;BME280;6052;53.246;10.368;2023-08-30T00:44:07;100322.69;;;19.14;78.06
11985;BME280;6052;53.246;10.368;2023-08-30T00:46:36;100318.34;;;19.13;77.92
11985;BME280;6052;53.246;10.368;2023-08-30T00:49:07;100319.47;;;19.12;77.83
11985;BME280;6052;53.246;10.368;2023-08-30T00:51:36;100322.50;;;19.11;77.34
11985;BME280;6052;53.246;10.368;2023-08-30T00:54:08;100318.94;;;19.10;77.84
11985;BME280;6052;53.246;10.368;2023-08-30T00:56:38;100319.78;;;19.11;77.91
11985;BME280;6052;53.246;10.368;2023-08-30T00:59:07;100320.97;;;19.05;77.58
11985;BME280;6052;53.246;10.368;2023-08-30T01:01:37;100320.34;;;19.08;77.62
11985;BME280;6052;53.246;10.368;2023-08-30T01:04:08;100315.63;;;19.13;76.82
11985;BME280;6052;53.246;10.368;2023-08-30T01:06:37;100307.28;;;19.10;77.25
11985;BME280;6052;53.246;10.368;2023-08-30T01:09:09;100305.25;;;19.29;76.79
11985;BME280;6052;53.246;10.368;2023-08-30T01:11:45;100303.53;;;19.19;76.79
11985;BME280;6052;53.246;10.368;2023-08-30T01:14:20;100303.03;;;19.17;76.80
11985;BME280;6052;53.246;10.368;2023-08-30T01:16:50;100297.19;;;19.10;77.06
11985;BME280;6052;53.246;10.368;2023-08-30T01:19:36;100295.97;;;19.03;76.83
11985;BME280;6052;53.246;10.368;2023-08-30T01:22:14;100287.50;;;19.04;76.60
11985;BME280;6052;53.246;10.368;2023-08-30T01:24:56;100286.31;;;18.97;76.84
11985;BME280;6052;53.246;10.368;2023-08-30T01:27:30;100285.81;;;18.95;76.80
11985;BME280;6052;53.246;10.368;2023-08-30T01:30:02;100272.28;;;18.90;76.96
11985;BME280;6052;53.246;10.368;2023-08-30T01:32:33;100275.81;;;18.90;76.57
11985;BME280;6052;53.246;10.368;2023-08-30T01:35:04;100265.94;;;18.81;76.98
11985;BME280;6052;53.246;10.368;2023-08-30T01:37:35;100273.38;;;18.75;76.76
11985;BME280;6052;53.246;10.368;2023-08-30T01:40:07;100275.38;;;18.70;77.03
11985;BME280;6052;53.246;10.368;2023-08-30T01:42:42;100274.06;;;18.67;77.51
11985;BME280;6052;53.246;10.368;2023-08-30T01:45:13;100269.44;;;18.68;77.08
11985;BME280;6052;53.246;10.368;2023-08-30T01:47:44;100274.78;;;18.59;77.32
11985;BME280;6052;53.246;10.368;2023-08-30T01:50:15;100281.63;;;18.57;77.25
11985;BME280;6052;53.246;10.368;2023-08-30T01:52:46;100283.03;;;18.54;77.28
11985;BME280;6052;53.246;10.368;2023-08-30T01:55:17;100285.84;;;18.49;76.86
11985;BME280;6052;53.246;10.368;2023-08-30T01:57:57;100274.53;;;18.42;77.09
11985;BME280;6052;53.246;10.368;2023-08-30T02:00:26;100275.84;;;18.45;77.27
11985;BME280;6052;53.246;10.368;2023-08-30T02:02:56;100272.84;;;18.46;77.42
11985;BME280;6052;53.246;10.368;2023-08-30T02:05:26;100271.81;;;18.42;77.17
11985;BME280;6052;53.246;10.368;2023-08-30T02:07:58;100278.84;;;18.43;77.00
11985;BME280;6052;53.246;10.368;2023-08-30T02:10:35;100278.56;;;18.45;76.60
11985;BME280;6052;53.246;10.368;2023-08-30T02:13:10;100277.44;;;18.46;76.77
11985;BME280;6052;53.246;10.368;2023-08-30T02:15:41;100287.63;;;18.40;77.02
11985;BME280;6052;53.246;10.368;2023-08-30T02:18:12;100277.06;;;18.39;77.04
11985;BME280;6052;53.246;10.368;2023-08-30T02:20:42;100278.25;;;18.33;77.32
11985;BME280;6052;53.246;10.368;2023-08-30T02:23:11;100272.53;;;18.34;77.21
11985;BME280;6052;53.246;10.368;2023-08-30T02:25:40;100266.03;;;18.30;76.82
11985;BME280;6052;53.246;10.368;2023-08-30T02:28:12;100269.28;;;18.32;77.31
11985;BME280;6052;53.246;10.368;2023-08-30T02:30:42;100268.75;;;18.30;76.93
11985;BME280;6052;53.246;10.368;2023-08-30T02:33:11;100270.25;;;18.23;77.35
11985;BME280;6052;53.246;10.368;2023-08-30T02:35:41;100271.63;;;18.20;77.59
11985;BME280;6052;53.246;10.368;2023-08-30T02:38:10;100265.59;;;18.23;77.78
11985;BME280;6052;53.246;10.368;2023-08-30T02:40:39;100274.34;;;18.20;77.18
11985;BME280;6052;53.246;10.368;2023-08-30T02:43:09;100269.41;;;18.22;77.33
11985;BME280;6052;53.246;10.368;2023-08-30T02:45:41;100271.94;;;18.19;76.86
11985;BME280;6052;53.246;10.368;2023-08-30T02:48:10;100282.59;;;18.15;76.95
11985;BME280;6052;53.246;10.368;2023-08-30T02:50:39;100276.53;;;18.18;77.35
11985;BME280;6052;53.246;10.368;2023-08-30T02:53:09;100272.22;;;18.17;77.29
11985;BME280;6052;53.246;10.368;2023-08-30T02:55:38;100266.50;;;18.19;76.86
11985;BME280;6052;53.246;10.368;2023-08-30T02:58:08;100263.97;;;18.22;76.53
11985;BME280;6052;53.246;10.368;2023-08-30T03:00:37;100258.34;;;18.19;77.10
11985;BME280;6052;53.246;10.368;2023-08-30T03:03:09;100265.44;;;18.33;76.51
11985;BME280;6052;53.246;10.368;2023-08-30T03:05:39;100261.34;;;18.17;76.96
11985;BME280;6052;53.246;10.368;2023-08-30T03:08:08;100269.00;;;18.15;76.77
11985;BME280;6052;53.246;10.368;2023-08-30T03:10:38;100260.03;;;18.15;76.76
11985;BME280;6052;53.246;10.368;2023-08-30T03:13:07;100262.75;;;18.15;77.04
11985;BME280;6052;53.246;10.368;2023-08-30T03:15:37;100254.94;;;17.95;78.50
11985;BME280;6052;53.246;10.368;2023-08-30T03:18:07;100261.09;;;18.00;78.07
11985;BME280;6052;53.246;10.368;2023-08-30T03:20:39;100262.44;;;18.03;77.29
11985;BME280;6052;53.246;10.368;2023-08-30T03:23:09;100265.63;;;18.05;77.37
11985;BME280;6052;53.246;10.368;2023-08-30T03:25:38;100263.22;;;18.03;77.56
11985;BME280;6052;53.246;10.368;2023-08-30T03:28:07;100262.19;;;17.99;77.97
11985;BME280;6052;53.246;10.368;2023-08-30T03:30:37;100261.94;;;17.64;79.64
11985;BME280;6052;53.246;10.368;2023-08-30T03:33:06;100265.88;;;17.90;78.18
11985;BME280;6052;53.246;10.368;2023-08-30T03:35:38;100266.31;;;17.97;77.51
11985;BME280;6052;53.246;10.368;2023-08-30T03:38:08;100254.44;;;17.93;78.79
11985;BME280;6052;53.246;10.368;2023-08-30T03:40:37;100255.25;;;17.56;79.84
11985;BME280;6052;53.246;10.368;2023-08-30T03:43:07;100248.56;;;17.86;78.79
11985;BME280;6052;53.246;10.368;2023-08-30T03:45:36;100245.78;;;17.72;78.99
11985;BME280;6052;53.246;10.368;2023-08-30T03:48:06;100247.53;;;17.82;78.53
11985;BME280;6052;53.246;10.368;2023-08-30T03:50:35;100241.69;;;17.75;78.69
11985;BME280;6052;53.246;10.368;2023-08-30T03:53:07;100243.88;;;17.73;79.13
11985;BME280;6052;53.246;10.368;2023-08-30T03:55:37;100246.13;;;17.84;78.33
11985;BME280;6052;53.246;10.368;2023-08-30T03:58:06;100248.34;;;17.82;78.01
11985;BME280;6052;53.246;10.368;2023-08-30T04:00:36;100241.03;;;17.83;77.58
11985;BME280;6052;53.246;10.368;2023-08-30T04:03:08;100253.78;;;17.82;77.97
11985;BME280;6052;53.246;10.368;2023-08-30T04:05:38;100242.41;;;17.80;77.99
11985;BME280;6052;53.246;10.368;2023-08-30T04:08:10;100237.94;;;17.71;77.84
11985;BME280;6052;53.246;10.368;2023-08-30T04:10:41;100238.59;;;17.63;78.26
11985;BME280;6052;53.246;10.368;2023-08-30T04:13:14;100239.41;;;17.63;78.38
11985;BME280;6052;53.246;10.368;2023-08-30T04:15:43;100242.06;;;17.50;78.77
11985;BME280;6052;53.246;10.368;2023-08-30T04:18:12;100234.47;;;17.65;78.56
11985;BME280;6052;53.246;10.368;2023-08-30T04:20:46;100231.28;;;17.45;79.08
11985;BME280;6052;53.246;10.368;2023-08-30T04:23:18;100229.94;;;17.42;79.70
11985;BME280;6052;53.246;10.368;2023-08-30T04:25:47;100228.75;;;17.30;79.96
11985;BME280;6052;53.246;10.368;2023-08-30T04:28:16;100230.75;;;17.43;79.12
11985;BME280;6052;53.246;10.368;2023-08-30T04:30:46;100224.75;;;17.46;79.08
11985;BME280;6052;53.246;10.368;2023-08-30T04:33:15;100213.22;;;17.54;78.46
11985;BME280;6052;53.246;10.368;2023-08-30T04:35:50;100204.63;;;17.47;78.76
11985;BME280;6052;53.246;10.368;2023-08-30T04:38:22;100213.81;;;17.51;78.49
11985;BME280;6052;53.246;10.368;2023-08-30T04:40:56;100208.94;;;17.48;78.50
11985;BME280;6052;53.246;10.368;2023-08-30T04:43:26;100210.59;;;17.49;78.33
11985;BME280;6052;53.246;10.368;2023-08-30T04:45:55;100212.19;;;17.50;78.32
11985;BME280;6052;53.246;10.368;2023-08-30T04:48:25;100215.00;;;17.45;78.36
11985;BME280;6052;53.246;10.368;2023-08-30T04:51:01;100206.78;;;17.50;78.14
11985;BME280;6052;53.246;10.368;2023-08-30T04:53:33;100206.78;;;17.50;78.24
11985;BME280;6052;53.246;10.368;2023-08-30T04:56:10;100201.72;;;17.43;78.49
11985;BME280;6052;53.246;10.368;2023-08-30T04:58:40;100202.59;;;17.39;78.96
11985;BME280;6052;53.246;10.368;2023-08-30T05:01:09;100199.22;;;17.47;79.30
11985;BME280;6052;53.246;10.368;2023-08-30T05:03:40;100212.00;;;17.46;78.60
11985;BME280;6052;53.246;10.368;2023-08-30T05:06:09;100202.22;;;17.45;78.82
11985;BME280;6052;53.246;10.368;2023-08-30T05:08:45;100210.13;;;17.42;79.37
11985;BME280;6052;53.246;10.368;2023-08-30T05:11:14;100204.13;;;17.45;79.50
11985;BME280;6052;53.246;10.368;2023-08-30T05:13:44;100207.72;;;17.40;79.77
11985;BME280;6052;53.246;10.368;2023-08-30T05:16:13;100212.59;;;17.20;81.10
11985;BME280;6052;53.246;10.368;2023-08-30T05:18:43;100209.06;;;17.19;82.01
11985;BME280;6052;53.246;10.368;2023-08-30T05:21:14;100204.19;;;16.98;82.90
11985;BME280;6052;53.246;10.368;2023-08-30T05:23:46;100203.09;;;16.99;83.55
11985;BME280;6052;53.246;10.368;2023-08-30T05:26:16;100202.03;;;17.18;82.72
11985;BME280;6052;53.246;10.368;2023-08-30T05:28:46;100201.22;;;17.18;82.86
11985;BME280;6052;53.246;10.368;2023-08-30T05:31:15;100206.97;;;17.35;81.25
11985;BME280;6052;53.246;10.368;2023-08-30T05:33:45;100204.75;;;17.18;83.63
11985;BME280;6052;53.246;10.368;2023-08-30T05:36:14;100207.00;;;17.11;84.09
11985;BME280;6052;53.246;10.368;2023-08-30T05:38:46;100209.13;;;17.14;84.40
11985;BME280;6052;53.246;10.368;2023-08-30T05:41:16;100204.63;;;17.28;84.02
11985;BME280;6052;53.246;10.368;2023-08-30T05:43:45;100204.13;;;17.03;86.46
11985;BME280;6052;53.246;10.368;2023-08-30T05:46:15;100204.13;;;17.03;85.87
11985;BME280;6052;53.246;10.368;2023-08-30T05:48:44;100199.97;;;17.29;84.20
11985;BME280;6052;53.246;10.368;2023-08-30T05:51:13;100198.22;;;17.38;83.80
11985;BME280;6052;53.246;10.368;2023-08-30T05:53:43;100208.19;;;17.24;86.00
11985;BME280;6052;53.246;10.368;2023-08-30T05:56:15;100199.56;;;17.40;84.06
11985;BME280;6052;53.246;10.368;2023-08-30T05:58:44;100206.97;;;17.35;84.75
11985;BME280;6052;53.246;10.368;2023-08-30T06:01:14;100214.44;;;17.24;87.65
11985;BME280;6052;53.246;10.368;2023-08-30T06:03:43;100207.25;;;17.15;88.29
11985;BME280;6052;53.246;10.368;2023-08-30T06:06:16;100208.69;;;17.07;89.26
11985;BME280;6052;53.246;10.368;2023-08-30T06:08:45;100205.41;;;17.29;87.88
11985;BME280;6052;53.246;10.368;2023-08-30T06:11:17;100206.16;;;17.34;88.25
11985;BME280;6052;53.246;10.368;2023-08-30T06:13:47;100201.75;;;17.38;86.78
11985;BME280;6052;53.246;10.368;2023-08-30T06:16:17;100192.66;;;17.11;90.36
11985;BME280;6052;53.246;10.368;2023-08-30T06:18:46;100192.88;;;17.14;90.75
11985;BME280;6052;53.246;10.368;2023-08-30T06:21:15;100198.56;;;16.94;92.91
11985;BME280;6052;53.246;10.368;2023-08-30T06:23:45;100193.69;;;17.15;92.88
11985;BME280;6052;53.246;10.368;2023-08-30T06:26:14;100186.88;;;17.36;91.74
11985;BME280;6052;53.246;10.368;2023-08-30T06:28:46;100180.63;;;17.35;92.66
11985;BME280;6052;53.246;10.368;2023-08-30T06:31:30;100185.84;;;17.32;92.70
11985;BME280;6052;53.246;10.368;2023-08-30T06:33:59;100178.81;;;17.49;93.07
11985;BME280;6052;53.246;10.368;2023-08-30T06:36:29;100181.72;;;17.34;94.41
11985;BME280;6052;53.246;10.368;2023-08-30T06:38:58;100186.00;;;17.40;94.25
11985;BME280;6052;53.246;10.368;2023-08-30T06:41:31;100177.97;;;17.30;95.52
11985;BME280;6052;53.246;10.368;2023-08-30T06:44:03;100176.72;;;17.23;96.21
11985;BME280;6052;53.246;10.368;2023-08-30T06:46:33;100173.09;;;17.32;94.73
11985;BME280;6052;53.246;10.368;2023-08-30T06:49:05;100171.34;;;17.41;95.05
11985;BME280;6052;53.246;10.368;2023-08-30T06:51:36;100170.38;;;17.51;95.09
11985;BME280;6052;53.246;10.368;2023-08-30T06:54:05;100170.97;;;17.48;96.06
11985;BME280;6052;53.246;10.368;2023-08-30T06:56:34;100176.50;;;17.75;94.77
11985;BME280;6052;53.246;10.368;2023-08-30T06:59:07;100170.06;;;17.71;95.29
11985;BME280;6052;53.246;10.368;2023-08-30T07:01:36;100161.38;;;17.87;95.19
11985;BME280;6052;53.246;10.368;2023-08-30T07:04:05;100161.78;;;17.94;95.77
11985;BME280;6052;53.246;10.368;2023-08-30T07:06:35;100159.06;;;17.94;95.39
11985;BME280;6052;53.246;10.368;2023-08-30T07:09:04;100156.03;;;17.96;94.72
11985;BME280;6052;53.246;10.368;2023-08-30T07:11:34;100151.06;;;18.03;94.91
11985;BME280;6052;53.246;10.368;2023-08-30T07:14:03;100158.09;;;18.04;94.74
11985;BME280;6052;53.246;10.368;2023-08-30T07:16:36;100154.25;;;18.05;93.59
11985;BME280;6052;53.246;10.368;2023-08-30T07:19:05;100163.53;;;18.04;94.47
11985;BME280;6052;53.246;10.368;2023-08-30T07:21:36;100157.31;;;18.17;94.58
11985;BME280;6052;53.246;10.368;2023-08-30T07:24:06;100154.81;;;18.20;95.44
11985;BME280;6052;53.246;10.368;2023-08-30T07:26:36;100155.00;;;18.24;94.64
11985;BME280;6052;53.246;10.368;2023-08-30T07:29:06;100158.13;;;18.31;95.29
11985;BME280;6052;53.246;10.368;2023-08-30T07:31:37;100152.69;;;18.31;93.56
11985;BME280;6052;53.246;10.368;2023-08-30T07:34:07;100153.78;;;18.30;93.51
11985;BME280;6052;53.246;10.368;2023-08-30T07:36:37;100158.75;;;18.41;93.36
11985;BME280;6052;53.246;10.368;2023-08-30T07:39:13;100158.38;;;18.48;92.60
11985;BME280;6052;53.246;10.368;2023-08-30T07:41:43;100152.31;;;18.37;91.32
11985;BME280;6052;53.246;10.368;2023-08-30T07:44:12;100151.91;;;18.57;93.21
11985;BME280;6052;53.246;10.368;2023-08-30T07:46:45;100154.44;;;18.67;94.26
11985;BME280;6052;53.246;10.368;2023-08-30T07:49:14;100156.63;;;18.92;94.18
11985;BME280;6052;53.246;10.368;2023-08-30T07:51:44;100157.94;;;18.95;93.75
11985;BME280;6052;53.246;10.368;2023-08-30T07:54:13;100160.03;;;18.98;92.71
11985;BME280;6052;53.246;10.368;2023-08-30T07:56:42;100159.63;;;19.04;92.60
11985;BME280;6052;53.246;10.368;2023-08-30T07:59:12;100154.78;;;19.15;92.09
11985;BME280;6052;53.246;10.368;2023-08-30T08:01:45;100155.06;;;19.27;92.32
11985;BME280;6052;53.246;10.368;2023-08-30T08:04:15;100163.34;;;19.22;90.66
11985;BME280;6052;53.246;10.368;2023-08-30T08:06:44;100157.19;;;19.52;93.37
11985;BME280;6052;53.246;10.368;2023-08-30T08:09:22;100158.91;;;19.48;90.52
11985;BME280;6052;53.246;10.368;2023-08-30T08:11:51;100158.88;;;19.61;89.85
11985;BME280;6052;53.246;10.368;2023-08-30T08:14:22;100161.41;;;19.80;90.33
11985;BME280;6052;53.246;10.368;2023-08-30T08:16:54;100165.13;;;19.84;90.89
11985;BME280;6052;53.246;10.368;2023-08-30T08:19:25;100158.06;;;19.83;89.80
11985;BME280;6052;53.246;10.368;2023-08-30T08:21:55;100160.03;;;19.91;88.75
11985;BME280;6052;53.246;10.368;2023-08-30T08:24:24;100161.38;;;20.02;88.67
11985;BME280;6052;53.246;10.368;2023-08-30T08:26:54;100164.19;;;20.10;89.13
11985;BME280;6052;53.246;10.368;2023-08-30T08:29:23;100163.50;;;20.27;89.20
11985;BME280;6052;53.246;10.368;2023-08-30T08:31:55;100170.44;;;20.11;87.36
11985;BME280;6052;53.246;10.368;2023-08-30T08:34:25;100163.06;;;20.11;87.09
11985;BME280;6052;53.246;10.368;2023-08-30T08:36:54;100167.13;;;20.22;88.12
11985;BME280;6052;53.246;10.368;2023-08-30T08:39:23;100165.09;;;20.06;85.37
11985;BME280;6052;53.246;10.368;2023-08-30T08:41:53;100161.34;;;20.15;85.43
11985;BME280;6052;53.246;10.368;2023-08-30T08:44:25;100167.94;;;20.23;86.03
11985;BME280;6052;53.246;10.368;2023-08-30T08:46:59;100161.41;;;20.32;85.82
11985;BME280;6052;53.246;10.368;2023-08-30T08:49:29;100159.00;;;20.31;86.32
11985;BME280;6052;53.246;10.368;2023-08-30T08:51:59;100164.53;;;20.48;85.99
11985;BME280;6052;53.246;10.368;2023-08-30T08:54:45;100166.22;;;20.27;81.78
11985;BME280;6052;53.246;10.368;2023-08-30T08:57:14;100172.69;;;20.39;82.27
11985;BME280;6052;53.246;10.368;2023-08-30T08:59:44;100172.59;;;20.22;82.47
11985;BME280;6052;53.246;10.368;2023-08-30T09:02:16;100172.91;;;20.21;81.27
11985;BME280;6052;53.246;10.368;2023-08-30T09:04:46;100167.81;;;20.28;83.44
11985;BME280;6052;53.246;10.368;2023-08-30T09:07:15;100168.28;;;20.30;82.96
11985;BME280;6052;53.246;10.368;2023-08-30T09:09:46;100161.72;;;20.31;83.63
11985;BME280;6052;53.246;10.368;2023-08-30T09:12:16;100165.56;;;20.30;83.82
11985;BME280;6052;53.246;10.368;2023-08-30T09:14:53;100166.28;;;20.44;84.31
11985;BME280;6052;53.246;10.368;2023-08-30T09:17:34;100169.22;;;20.56;83.31
11985;BME280;6052;53.246;10.368;2023-08-30T09:20:09;100170.31;;;20.55;82.99
11985;BME280;6052;53.246;10.368;2023-08-30T09:22:39;100165.88;;;20.28;82.42
11985;BME280;6052;53.246;10.368;2023-08-30T09:25:10;100169.91;;;20.31;81.77
11985;BME280;6052;53.246;10.368;2023-08-30T09:27:40;100161.25;;;20.29;81.12
11985;BME280;6052;53.246;10.368;2023-08-30T09:30:10;100158.47;;;20.20;81.38
11985;BME280;6052;53.246;10.368;2023-08-30T09:32:42;100150.34;;;20.29;80.87
11985;BME280;6052;53.246;10.368;2023-08-30T09:35:12;100160.41;;;20.28;80.65
11985;BME280;6052;53.246;10.368;2023-08-30T09:37:44;100160.09;;;20.21;80.43
11985;BME280;6052;53.246;10.368;2023-08-30T09:40:18;100157.34;;;20.21;80.76
11985;BME280;6052;53.246;10.368;2023-08-30T09:42:48;100162.63;;;20.18;80.48
11985;BME280;6052;53.246;10.368;2023-08-30T09:45:36;100161.72;;;20.31;81.06
11985;BME280;6052;53.246;10.368;2023-08-30T09:48:09;100147.56;;;20.51;81.98
11985;BME280;6052;53.246;10.368;2023-08-30T09:50:39;100150.72;;;20.44;80.67
11985;BME280;6052;53.246;10.368;2023-08-30T09:53:14;100146.28;;;20.57;81.88
11985;BME280;6052;53.246;10.368;2023-08-30T09:55:46;100143.75;;;20.69;81.72
11985;BME280;6052;53.246;10.368;2023-08-30T09:58:17;100140.53;;;20.67;82.30
11985;BME280;6052;53.246;10.368;2023-08-30T10:00:48;100134.72;;;20.60;80.96
11985;BME280;6052;53.246;10.368;2023-08-30T10:03:20;100138.56;;;20.59;80.77
11985;BME280;6052;53.246;10.368;2023-08-30T10:06:10;100138.72;;;20.54;80.94
11985;BME280;6052;53.246;10.368;2023-08-30T10:08:42;100137.78;;;20.58;81.78
11985;BME280;6052;53.246;10.368;2023-08-30T10:11:14;100133.13;;;20.67;81.27
11985;BME280;6052;53.246;10.368;2023-08-30T10:13:45;100139.25;;;20.64;80.29
11985;BME280;6052;53.246;10.368;2023-08-30T10:16:19;100144.00;;;20.50;78.81
11985;BME280;6052;53.246;10.368;2023-08-30T10:18:54;100134.25;;;20.58;79.79
11985;BME280;6052;53.246;10.368;2023-08-30T10:21:31;100129.41;;;20.55;79.59
11985;BME280;6052;53.246;10.368;2023-08-30T10:24:03;100128.66;;;20.63;79.24
11985;BME280;6052;53.246;10.368;2023-08-30T10:26:54;100132.81;;;20.60;79.13
11985;BME280;6052;53.246;10.368;2023-08-30T10:29:26;100128.66;;;20.63;79.43
11985;BME280;6052;53.246;10.368;2023-08-30T10:32:03;100119.19;;;20.77;79.29
11985;BME280;6052;53.246;10.368;2023-08-30T10:34:36;100122.41;;;20.71;79.48
11985;BME280;6052;53.246;10.368;2023-08-30T10:37:08;100120.00;;;20.78;80.04
11985;BME280;6052;53.246;10.368;2023-08-30T10:39:38;100125.34;;;20.91;78.88
11985;BME280;6052;53.246;10.368;2023-08-30T10:42:09;100123.88;;;20.77;78.71
11985;BME280;6052;53.246;10.368;2023-08-30T10:44:48;100120.00;;;20.78;78.00
11985;BME280;6052;53.246;10.368;2023-08-30T10:47:38;100128.66;;;20.71;78.18
11985;BME280;6052;53.246;10.368;2023-08-30T10:50:11;100124.47;;;20.65;77.93
11985;BME280;6052;53.246;10.368;2023-08-30T10:52:40;100124.47;;;20.65;78.44
11985;BME280;6052;53.246;10.368;2023-08-30T10:55:11;100126.75;;;20.72;78.30
11985;BME280;6052;53.246;10.368;2023-08-30T10:57:42;100122.88;;;20.64;78.56
11985;BME280;6052;53.246;10.368;2023-08-30T11:00:19;100126.44;;;20.73;77.89
11985;BME280;6052;53.246;10.368;2023-08-30T11:02:50;100119.69;;;20.71;78.96
11985;BME280;6052;53.246;10.368;2023-08-30T11:05:24;100129.50;;;20.89;78.36
11985;BME280;6052;53.246;10.368;2023-08-30T11:07:54;100117.13;;;20.66;78.72
11985;BME280;6052;53.246;10.368;2023-08-30T11:10:24;100115.84;;;20.72;78.50
11985;BME280;6052;53.246;10.368;2023-08-30T11:12:53;100114.41;;;20.74;78.97
11985;BME280;6052;53.246;10.368;2023-08-30T11:15:26;100118.09;;;20.78;78.65
11985;BME280;6052;53.246;10.368;2023-08-30T11:18:02;100111.41;;;20.93;77.76
11985;BME280;6052;53.246;10.368;2023-08-30T11:20:34;100105.25;;;20.79;77.25
11985;BME280;6052;53.246;10.368;2023-08-30T11:23:04;100106.69;;;20.85;77.66
11985;BME280;6052;53.246;10.368;2023-08-30T11:25:34;100111.09;;;20.94;78.18
11985;BME280;6052;53.246;10.368;2023-08-30T11:28:04;100109.41;;;20.85;76.87
11985;BME280;6052;53.246;10.368;2023-08-30T11:30:39;100106.22;;;20.83;77.01
11985;BME280;6052;53.246;10.368;2023-08-30T11:33:09;100110.06;;;20.73;77.32
11985;BME280;6052;53.246;10.368;2023-08-30T11:35:41;100111.00;;;20.69;76.54
11985;BME280;6052;53.246;10.368;2023-08-30T11:38:11;100107.50;;;20.77;76.80
11985;BME280;6052;53.246;10.368;2023-08-30T11:40:40;100106.53;;;20.73;75.88
11985;BME280;6052;53.246;10.368;2023-08-30T11:43:10;100101.22;;;20.68;76.21
11985;BME280;6052;53.246;10.368;2023-08-30T11:45:39;100103.31;;;20.71;75.98
11985;BME280;6052;53.246;10.368;2023-08-30T11:48:09;100098.34;;;20.73;75.69
11985;BME280;6052;53.246;10.368;2023-08-30T11:50:42;100092.22;;;20.59;75.97
11985;BME280;6052;53.246;10.368;2023-08-30T11:53:14;100094.00;;;20.72;75.71
11985;BME280;6052;53.246;10.368;2023-08-30T11:55:44;100093.03;;;20.85;75.10
11985;BME280;6052;53.246;10.368;2023-08-30T11:58:14;100096.00;;;20.97;75.79
11985;BME280;6052;53.246;10.368;2023-08-30T12:00:44;100086.97;;;20.88;75.76
11985;BME280;6052;53.246;10.368;2023-08-30T12:03:14;100087.44;;;20.81;75.67
11985;BME280;6052;53.246;10.368;2023-08-30T12:05:47;100085.38;;;20.87;75.40
11985;BME280;6052;53.246;10.368;2023-08-30T12:08:18;100087.97;;;20.92;75.80
11985;BME280;6052;53.246;10.368;2023-08-30T12:10:47;100083.75;;;20.86;75.56
11985;BME280;6052;53.246;10.368;2023-08-30T12:13:23;100082.63;;;20.87;76.08
11985;BME280;6052;53.246;10.368;2023-08-30T12:15:53;100084.22;;;20.79;76.03
11985;BME280;6052;53.246;10.368;2023-08-30T12:18:23;100086.97;;;20.88;75.26
11985;BME280;6052;53.246;10.368;2023-08-30T12:21:01;100082.78;;;20.82;76.30
11985;BME280;6052;53.246;10.368;2023-08-30T12:23:32;100086.16;;;20.79;76.26
11985;BME280;6052;53.246;10.368;2023-08-30T12:26:03;100074.09;;;20.80;75.93
11985;BME280;6052;53.246;10.368;2023-08-30T12:28:34;100076.03;;;20.71;76.12
11985;BME280;6052;53.246;10.368;2023-08-30T12:31:04;100067.19;;;20.74;75.75
11985;BME280;6052;53.246;10.368;2023-08-30T12:33:34;100077.81;;;20.75;75.99
11985;BME280;6052;53.246;10.368;2023-08-30T12:36:06;100077.03;;;20.83;76.94
11985;BME280;6052;53.246;10.368;2023-08-30T12:38:38;100070.13;;;20.86;78.09
11985;BME280;6052;53.246;10.368;2023-08-30T12:41:08;100068.34;;;20.81;77.18
11985;BME280;6052;53.246;10.368;2023-08-30T12:43:37;100058.06;;;20.87;75.48
11985;BME280;6052;53.246;10.368;2023-08-30T12:46:07;100060.69;;;20.92;75.57
11985;BME280;6052;53.246;10.368;2023-08-30T12:48:36;100056.66;;;20.98;75.94
11985;BME280;6052;53.246;10.368;2023-08-30T12:51:08;100058.44;;;21.02;76.36
11985;BME280;6052;53.246;10.368;2023-08-30T12:53:37;100055.03;;;21.14;75.71
11985;BME280;6052;53.246;10.368;2023-08-30T12:56:07;100056.31;;;21.16;75.69
11985;BME280;6052;53.246;10.368;2023-08-30T12:58:36;100046.69;;;21.10;75.81
11985;BME280;6052;53.246;10.368;2023-08-30T13:01:06;100044.13;;;21.14;77.09
11985;BME280;6052;53.246;10.368;2023-08-30T13:03:35;100042.22;;;21.06;76.05
11985;BME280;6052;53.246;10.368;2023-08-30T13:06:05;100042.03;;;20.94;75.77
11985;BME280;6052;53.246;10.368;2023-08-30T13:08:37;100038.06;;;21.00;75.60
11985;BME280;6052;53.246;10.368;2023-08-30T13:11:06;100030.81;;;21.04;74.63